Portada
METAR-TAF:

METAR-TAF

Aeroports :

Taba, Egipte

latitud: 29-35-57N, longitud: 034-46-36E, altitud: 749 m

METAR: manca

Hora: 09:29 (07:29 UTC)

Pronòstic

L'informe es va fer fa 2 hores i 29 minuts, a les 05:00 UTC
Pronòstic vàlid del 08 a les 06 UTC al 09 a les 12 UTC
Vent 10 kt del Nord/Nord-Est
Visibilitat 10 km o més
sense núvols per sota de 1500 mi sense presència de cumulonimbus.

TAF: HETB 080500Z 0806/0912 03010KT CAVOK

Observacions i pronòstics meteorològics de més de 4000 aeroports (METAR i TAF).

Les estacions disponibles són els punts grocs i vermells al mapa.

Posi el ratolí al punt desitjat per veure el nom de l'estació.

Feu clic per veure les observacions i els pronòstics meteorològics.

Per canviar el mapa: feu clic els botons verds amb una creu de color negre per apropar; al botó verd amb un guió per allunyar la imatge; o en les fletxes verdes per a mapes adjacents.


METAR-TAF: